Time;durP1;ratioP1;P1;durP2;ratioP2;P2;SDS_P1;SDS_P2;PMS_P1;PMS_P2;Temp;Humidity;BMP_temperature;BMP_pressure;BME280_temperature;BME280_humidity;BME280_pressure;Samples;Min_cycle;Max_cycle;Signal;HPM_P1;HPM_P2
2022/08/22 00:02:09;;;;;;;0.90;0.82;;;;;;;;;;5059637;28;20201;-83
2022/08/22 00:04:43;;;;;;;1.60;1.10;;;;;;;;;;5059865;28;20263;-83
2022/08/22 00:07:21;;;;;;;0.93;0.93;;;;;;;;;;5059088;28;20190;-83
2022/08/22 00:09:56;;;;;;;1.10;1.05;;;;;;;;;;5059657;28;20189;-84
2022/08/22 00:12:28;;;;;;;0.93;0.93;;;;;;;;;;5058917;28;20634;-84
2022/08/22 00:15:02;;;;;;;0.77;0.77;;;;;;;;;;5060507;28;20762;-84
2022/08/22 00:17:44;;;;;;;1.15;1.15;;;;;;;;;;5058734;28;20190;-84
2022/08/22 00:20:19;;;;;;;0.77;0.77;;;;;;;;;;5060846;28;20186;-83
2022/08/22 00:22:55;;;;;;;2.22;1.35;;;;;;;;;;5060177;28;20273;-83
2022/08/22 00:25:36;;;;;;;1.00;1.00;;;;;;;;;;5060194;28;20193;-82
2022/08/22 00:28:10;;;;;;;0.75;0.75;;;;;;;;;;5061248;28;20181;-82
2022/08/22 00:30:47;;;;;;;0.80;0.80;;;;;;;;;;5060237;28;20288;-81
2022/08/22 00:33:29;;;;;;;1.35;0.80;;;;;;;;;;5059021;28;20218;-81
2022/08/22 00:36:19;;;;;;;1.00;0.88;;;;;;;;;;5060696;28;20680;-82
2022/08/22 00:38:54;;;;;;;0.80;0.80;;;;;;;;;;5058830;28;20274;-82
2022/08/22 00:41:34;;;;;;;0.90;0.90;;;;;;;;;;5057369;28;20272;-82
2022/08/22 00:44:29;;;;;;;0.80;0.80;;;;;;;;;;5057948;28;20225;-82
2022/08/22 00:47:26;;;;;;;0.75;0.75;;;;;;;;;;5059155;28;20193;-82
2022/08/22 00:50:22;;;;;;;1.00;0.98;;;;;;;;;;5059171;28;20619;-81
2022/08/22 00:53:03;;;;;;;1.00;0.90;;;;;;;;;;5058880;28;20213;-82
2022/08/22 00:55:53;;;;;;;1.38;0.80;;;;;;;;;;5058572;28;20204;-81
2022/08/22 00:58:55;;;;;;;1.02;1.00;;;;;;;;;;5057661;28;20186;-81
2022/08/22 01:01:30;;;;;;;1.15;0.95;;;;;;;;;;5036948;28;20232;-82
2022/08/22 01:04:44;;;;;;;2.70;1.10;;;;;;;;;;5058276;28;20264;-81
2022/08/22 01:07:28;;;;;;;1.83;1.00;;;;;;;;;;5059231;28;20202;-80
2022/08/22 01:10:13;;;;;;;0.75;0.75;;;;;;;;;;5059455;28;20232;-81
2022/08/22 01:13:04;;;;;;;1.27;1.17;;;;;;;;;;5059939;28;20194;-78
2022/08/22 01:15:35;;;;;;;1.48;1.38;;;;;;;;;;5062267;28;20217;-80
2022/08/22 01:18:50;;;;;;;1.00;1.00;;;;;;;;;;5063656;28;20232;-79
2022/08/22 01:22:05;;;;;;;1.02;1.02;;;;;;;;;;5001799;28;20594;-79
2022/08/22 01:25:19;;;;;;;1.08;0.98;;;;;;;;;;5002512;28;20228;-80
2022/08/22 01:28:50;;;;;;;1.00;1.00;;;;;;;;;;5064312;28;20206;-79
2022/08/22 01:32:04;;;;;;;1.40;1.08;;;;;;;;;;5036841;28;20268;-79
2022/08/22 01:34:58;;;;;;;1.15;1.00;;;;;;;;;;5028831;28;20736;-80
2022/08/22 01:37:57;;;;;;;1.20;1.10;;;;;;;;;;5062096;28;20209;-79
2022/08/22 01:41:11;;;;;;;1.02;0.98;;;;;;;;;;5010543;28;20202;-80
2022/08/22 01:44:16;;;;;;;1.50;1.02;;;;;;;;;;5065248;28;20229;-79
2022/08/22 01:46:58;;;;;;;1.90;0.95;;;;;;;;;;5047058;28;20202;-80
2022/08/22 01:49:30;;;;;;;1.17;1.10;;;;;;;;;;5064849;28;20237;-81
2022/08/22 01:52:04;;;;;;;1.30;0.80;;;;;;;;;;5065713;28;20209;-80
2022/08/22 01:54:43;;;;;;;1.02;0.80;;;;;;;;;;5064883;28;20311;-81
2022/08/22 01:57:13;;;;;;;1.27;1.17;;;;;;;;;;5063171;28;20697;-80
2022/08/22 01:59:44;;;;;;;1.10;1.10;;;;;;;;;;5064185;28;20570;-81
2022/08/22 02:02:32;;;;;;;1.45;1.20;;;;;;;;;;5064554;28;20549;-80
2022/08/22 02:05:06;;;;;;;2.50;1.45;;;;;;;;;;5064682;28;20685;-81
2022/08/22 02:07:48;;;;;;;1.15;1.08;;;;;;;;;;5064522;28;20197;-80
2022/08/22 02:10:22;;;;;;;1.23;1.20;;;;;;;;;;5063740;28;20178;-82
2022/08/22 02:13:00;;;;;;;0.90;0.90;;;;;;;;;;5066261;28;20189;-80
2022/08/22 02:15:35;;;;;;;1.10;1.00;;;;;;;;;;5066564;28;20579;-82
2022/08/22 02:18:14;;;;;;;1.00;1.00;;;;;;;;;;5066408;28;20258;-81
2022/08/22 02:20:59;;;;;;;1.20;1.00;;;;;;;;;;5066756;28;20194;-82
2022/08/22 02:23:47;;;;;;;1.10;1.00;;;;;;;;;;5065229;28;20623;-82
2022/08/22 02:26:20;;;;;;;1.52;1.00;;;;;;;;;;5062457;28;20599;-83
2022/08/22 02:28:57;;;;;;;1.50;1.13;;;;;;;;;;5065059;28;20216;-83
2022/08/22 02:31:36;;;;;;;1.00;1.00;;;;;;;;;;5063246;28;20247;-82
2022/08/22 02:34:25;;;;;;;1.55;1.40;;;;;;;;;;5063438;28;20281;-83
2022/08/22 02:37:02;;;;;;;0.93;0.93;;;;;;;;;;5063863;28;20179;-81
2022/08/22 02:39:36;;;;;;;1.35;1.15;;;;;;;;;;5065573;28;20192;-81
2022/08/22 02:42:19;;;;;;;1.13;1.13;;;;;;;;;;5066009;28;20181;-80
2022/08/22 02:45:04;;;;;;;1.05;0.98;;;;;;;;;;5064406;28;20264;-82
2022/08/22 02:47:39;;;;;;;1.00;1.00;;;;;;;;;;5067414;28;20228;-82
2022/08/22 02:50:17;;;;;;;0.80;0.80;;;;;;;;;;5066426;28;20268;-82
2022/08/22 02:52:57;;;;;;;1.00;1.00;;;;;;;;;;5064945;28;20465;-82
2022/08/22 02:55:40;;;;;;;1.73;1.10;;;;;;;;;;5063013;28;20186;-82
2022/08/22 02:58:16;;;;;;;0.98;0.98;;;;;;;;;;5061521;28;20193;-82
2022/08/22 03:00:50;;;;;;;0.60;0.60;;;;;;;;;;5063556;28;20212;-82
2022/08/22 03:03:24;;;;;;;0.90;0.90;;;;;;;;;;5064231;28;20221;-81
2022/08/22 03:06:04;;;;;;;0.73;0.73;;;;;;;;;;5063647;28;20197;-82
2022/08/22 03:08:35;;;;;;;0.95;0.95;;;;;;;;;;5065933;28;20720;-83
2022/08/22 03:11:15;;;;;;;0.90;0.90;;;;;;;;;;5065698;28;20178;-82
2022/08/22 03:13:53;;;;;;;0.82;0.82;;;;;;;;;;5066074;28;20226;-83
2022/08/22 03:16:32;;;;;;;0.93;0.93;;;;;;;;;;5065493;28;20260;-81
2022/08/22 03:19:06;;;;;;;1.15;1.05;;;;;;;;;;5064890;28;20292;-82
2022/08/22 03:21:41;;;;;;;1.77;1.20;;;;;;;;;;5065136;28;20186;-80
2022/08/22 03:24:13;;;;;;;0.90;0.90;;;;;;;;;;5062351;28;20624;-82
2022/08/22 03:26:49;;;;;;;1.42;1.20;;;;;;;;;;5061124;28;20205;-82
2022/08/22 03:29:22;;;;;;;0.80;0.80;;;;;;;;;;5062607;28;20281;-80
2022/08/22 03:32:11;;;;;;;0.80;0.80;;;;;;;;;;5062996;28;20209;-80
2022/08/22 03:34:54;;;;;;;0.80;0.80;;;;;;;;;;5062203;28;20713;-82
2022/08/22 03:37:27;;;;;;;1.08;1.00;;;;;;;;;;5064917;28;20255;-83
2022/08/22 03:40:00;;;;;;;1.35;1.15;;;;;;;;;;5064798;28;20620;-82
2022/08/22 03:43:03;;;;;;;1.10;1.00;;;;;;;;;;5064578;28;20551;-82
2022/08/22 03:46:04;;;;;;;1.10;1.10;;;;;;;;;;5063673;28;20227;-82
2022/08/22 03:49:14;;;;;;;1.30;1.20;;;;;;;;;;5059894;28;20201;-82
2022/08/22 03:52:03;;;;;;;1.00;0.85;;;;;;;;;;4998226;28;20203;-82
2022/08/22 03:55:12;;;;;;;0.95;0.95;;;;;;;;;;5059833;28;20257;-81
2022/08/22 03:58:39;;;;;;;2.03;1.70;;;;;;;;;;5061855;28;20189;-82
2022/08/22 04:01:32;;;;;;;0.90;0.90;;;;;;;;;;5054043;28;20255;-81
2022/08/22 04:04:35;;;;;;;1.00;0.93;;;;;;;;;;5062725;28;20229;-81
2022/08/22 04:07:25;;;;;;;1.13;1.00;;;;;;;;;;5063471;28;20246;-81
2022/08/22 04:11:06;;;;;;;1.25;1.13;;;;;;;;;;5061520;28;20178;-80
2022/08/22 04:14:16;;;;;;;1.75;1.00;;;;;;;;;;5048911;28;20217;-82
2022/08/22 04:17:27;;;;;;;0.80;0.80;;;;;;;;;;5064506;28;20196;-80
2022/08/22 04:20:55;;;;;;;0.90;0.90;;;;;;;;;;5058571;28;20204;-81
2022/08/22 04:24:06;;;;;;;2.10;1.63;;;;;;;;;;5062137;28;20292;-82
2022/08/22 04:26:40;;;;;;;1.45;1.30;;;;;;;;;;5060619;28;20201;-82
2022/08/22 04:29:19;;;;;;;1.42;1.33;;;;;;;;;;5059931;28;20689;-81
2022/08/22 04:31:53;;;;;;;1.17;1.08;;;;;;;;;;5061960;28;20185;-81
2022/08/22 04:34:28;;;;;;;1.35;1.33;;;;;;;;;;5062560;28;20222;-81
2022/08/22 04:37:01;;;;;;;1.02;0.93;;;;;;;;;;5064333;28;20216;-81
2022/08/22 04:39:35;;;;;;;1.08;1.00;;;;;;;;;;5062353;28;20216;-80
2022/08/22 04:42:16;;;;;;;0.80;0.80;;;;;;;;;;5063503;28;20691;-80
2022/08/22 04:44:50;;;;;;;1.08;1.08;;;;;;;;;;5062163;28;20290;-81
2022/08/22 04:47:28;;;;;;;0.88;0.88;;;;;;;;;;5061274;28;20246;-82
2022/08/22 04:49:59;;;;;;;0.80;0.80;;;;;;;;;;5062437;28;20213;-82
2022/08/22 04:52:40;;;;;;;0.80;0.80;;;;;;;;;;5065834;28;20202;-82
2022/08/22 04:55:19;;;;;;;0.90;0.90;;;;;;;;;;5064557;28;20599;-82
2022/08/22 04:58:06;;;;;;;0.90;0.90;;;;;;;;;;5063131;28;20182;-81
2022/08/22 05:00:42;;;;;;;0.80;0.80;;;;;;;;;;5065898;28;20190;-81
2022/08/22 05:03:14;;;;;;;0.70;0.70;;;;;;;;;;5066593;28;20282;-80
2022/08/22 05:05:43;;;;;;;1.77;1.67;;;;;;;;;;5067911;28;20236;-80
2022/08/22 05:08:22;;;;;;;1.23;1.10;;;;;;;;;;5066991;28;20202;-81
2022/08/22 05:10:50;;;;;;;1.02;1.00;;;;;;;;;;5068375;28;20618;-82
2022/08/22 05:13:23;;;;;;;2.20;1.08;;;;;;;;;;5065969;28;20256;-81
2022/08/22 05:15:57;;;;;;;1.30;1.20;;;;;;;;;;5066320;28;20256;-81
2022/08/22 05:18:29;;;;;;;1.02;0.90;;;;;;;;;;5066475;28;20594;-81
2022/08/22 05:21:01;;;;;;;0.77;0.77;;;;;;;;;;5064131;28;20178;-81
2022/08/22 05:23:31;;;;;;;0.70;0.70;;;;;;;;;;5066146;28;20221;-80
2022/08/22 05:26:01;;;;;;;1.20;1.10;;;;;;;;;;5065570;28;20210;-81
2022/08/22 05:28:33;;;;;;;1.00;1.00;;;;;;;;;;5066259;28;20449;-82
2022/08/22 05:31:06;;;;;;;0.63;0.63;;;;;;;;;;5066411;28;20214;-82
2022/08/22 05:33:41;;;;;;;1.00;1.00;;;;;;;;;;5067159;28;20251;-80
2022/08/22 05:36:13;;;;;;;1.00;1.00;;;;;;;;;;5066589;28;20182;-81
2022/08/22 05:38:48;;;;;;;1.02;0.88;;;;;;;;;;5067339;28;20678;-82
2022/08/22 05:41:22;;;;;;;0.90;0.90;;;;;;;;;;5066462;28;20178;-82
2022/08/22 05:43:52;;;;;;;0.75;0.75;;;;;;;;;;5064175;28;20217;-81
2022/08/22 05:46:25;;;;;;;0.88;0.88;;;;;;;;;;5065268;28;20255;-83
2022/08/22 05:48:58;;;;;;;0.80;0.80;;;;;;;;;;5064325;28;20205;-82
2022/08/22 05:51:33;;;;;;;0.80;0.80;;;;;;;;;;5065352;28;20541;-82
2022/08/22 05:54:11;;;;;;;0.93;0.93;;;;;;;;;;5066090;28;20213;-80
2022/08/22 05:56:43;;;;;;;0.80;0.80;;;;;;;;;;5066463;28;20217;-81
2022/08/22 05:59:22;;;;;;;0.70;0.70;;;;;;;;;;5066233;28;20201;-80
2022/08/22 06:02:03;;;;;;;0.85;0.85;;;;;;;;;;5066105;28;20201;-83
2022/08/22 06:04:40;;;;;;;0.80;0.80;;;;;;;;;;5066491;28;20732;-83
2022/08/22 06:07:14;;;;;;;1.15;1.10;;;;;;;;;;5066164;28;20202;-82
2022/08/22 06:10:07;;;;;;;0.80;0.80;;;;;;;;;;5065990;28;20194;-82
2022/08/22 06:12:38;;;;;;;1.20;1.10;;;;;;;;;;5065117;28;20198;-80
2022/08/22 06:15:15;;;;;;;1.55;1.17;;;;;;;;;;5065576;28;20249;-81
2022/08/22 06:17:47;;;;;;;1.38;1.27;;;;;;;;;;5066013;28;20555;-81
2022/08/22 06:20:18;;;;;;;1.88;1.30;;;;;;;;;;5065426;28;20542;-82
2022/08/22 06:22:52;;;;;;;0.90;0.90;;;;;;;;;;5065293;28;20205;-82
2022/08/22 06:25:25;;;;;;;1.00;1.00;;;;;;;;;;5064754;28;20255;-82
2022/08/22 06:27:53;;;;;;;1.05;1.00;;;;;;;;;;5063714;28;20202;-81
2022/08/22 06:30:22;;;;;;;1.63;1.20;;;;;;;;;;5065510;28;20255;-81
2022/08/22 06:32:55;;;;;;;1.17;1.15;;;;;;;;;;5065935;28;20228;-83
2022/08/22 06:35:26;;;;;;;1.27;1.17;;;;;;;;;;5067094;28;20232;-82
2022/08/22 06:37:57;;;;;;;0.90;0.90;;;;;;;;;;5066707;28;20232;-81
2022/08/22 06:40:26;;;;;;;1.88;1.13;;;;;;;;;;5064319;28;20633;-80
2022/08/22 06:42:54;;;;;;;2.13;1.10;;;;;;;;;;5064324;28;20220;-80
2022/08/22 06:45:27;;;;;;;1.45;1.35;;;;;;;;;;5063435;28;20194;-81
2022/08/22 06:48:12;;;;;;;0.85;0.85;;;;;;;;;;5065077;28;20198;-82
2022/08/22 06:50:43;;;;;;;1.65;1.42;;;;;;;;;;5065479;28;20229;-82
2022/08/22 06:53:14;;;;;;;0.80;0.80;;;;;;;;;;5064488;28;20588;-82
2022/08/22 06:55:48;;;;;;;1.42;1.33;;;;;;;;;;5064992;28;20296;-81
2022/08/22 06:58:19;;;;;;;1.08;1.08;;;;;;;;;;5065484;28;20194;-81
2022/08/22 07:00:52;;;;;;;1.42;1.33;;;;;;;;;;5065094;28;20202;-80
2022/08/22 07:03:27;;;;;;;1.33;1.23;;;;;;;;;;5066618;28;20213;-83
2022/08/22 07:05:56;;;;;;;1.30;1.20;;;;;;;;;;5069065;22;20320;-81
2022/08/22 07:08:25;;;;;;;3.03;1.65;;;;;;;;;;5052999;28;20288;-80
2022/08/22 07:11:07;;;;;;;1.42;1.33;;;;;;;;;;5053431;28;20289;-80
2022/08/22 07:13:36;;;;;;;1.20;0.93;;;;;;;;;;5052425;28;20742;-81
2022/08/22 07:16:07;;;;;;;1.15;1.08;;;;;;;;;;5053514;28;20669;-80
2022/08/22 07:18:48;;;;;;;1.00;1.00;;;;;;;;;;5052532;28;20759;-80
2022/08/22 07:21:26;;;;;;;1.65;1.50;;;;;;;;;;5053030;28;20256;-80
2022/08/22 07:23:54;;;;;;;1.48;1.38;;;;;;;;;;5052685;28;20284;-81
2022/08/22 07:26:31;;;;;;;1.70;1.40;;;;;;;;;;5052336;28;20793;-80
2022/08/22 07:29:03;;;;;;;1.65;1.30;;;;;;;;;;5052520;28;20209;-80
2022/08/22 07:31:36;;;;;;;1.30;1.05;;;;;;;;;;5052580;28;20253;-80
2022/08/22 07:34:24;;;;;;;1.10;1.00;;;;;;;;;;5052271;28;20674;-81
2022/08/22 07:36:58;;;;;;;1.00;1.00;;;;;;;;;;5051991;28;20574;-81
2022/08/22 07:39:31;;;;;;;1.17;1.02;;;;;;;;;;5052216;28;20201;-80
2022/08/22 07:42:13;;;;;;;1.25;1.13;;;;;;;;;;5052434;28;20217;-80
2022/08/22 07:45:00;;;;;;;1.90;1.80;;;;;;;;;;5052482;28;20205;-80
2022/08/22 07:47:34;;;;;;;2.22;1.10;;;;;;;;;;5052004;28;20260;-81
2022/08/22 07:50:08;;;;;;;1.38;1.27;;;;;;;;;;5052076;28;20237;-80
2022/08/22 07:52:41;;;;;;;1.92;1.40;;;;;;;;;;5052013;28;20736;-80
2022/08/22 07:55:17;;;;;;;2.70;1.40;;;;;;;;;;5052521;28;20635;-80
2022/08/22 07:57:47;;;;;;;0.90;0.90;;;;;;;;;;5051811;28;20224;-81
2022/08/22 08:00:19;;;;;;;1.98;1.60;;;;;;;;;;5053244;28;20213;-80
2022/08/22 08:02:49;;;;;;;0.93;0.93;;;;;;;;;;5052107;28;20255;-81
2022/08/22 08:05:20;;;;;;;2.00;1.23;;;;;;;;;;5052894;28;20252;-80
2022/08/22 08:07:48;;;;;;;1.85;1.00;;;;;;;;;;5051841;28;20221;-81
2022/08/22 08:10:18;;;;;;;1.40;1.30;;;;;;;;;;5051704;28;20225;-81
2022/08/22 08:12:49;;;;;;;2.13;1.48;;;;;;;;;;5051939;28;20302;-81
2022/08/22 08:15:19;;;;;;;1.55;1.45;;;;;;;;;;5052130;28;20205;-80
2022/08/22 08:17:50;;;;;;;2.25;2.05;;;;;;;;;;5051956;28;20236;-80
2022/08/22 08:20:23;;;;;;;1.30;1.20;;;;;;;;;;5052257;28;20225;-81
2022/08/22 08:22:52;;;;;;;1.10;1.10;;;;;;;;;;5052538;28;20240;-82
2022/08/22 08:25:23;;;;;;;2.05;1.40;;;;;;;;;;5052925;28;20213;-81
2022/08/22 08:30:41;;;;;;;1.63;1.33;;;;;;;;;;5056886;28;20702;-81
2022/08/22 08:33:12;;;;;;;1.50;1.40;;;;;;;;;;5058545;28;20205;-81
2022/08/22 08:35:44;;;;;;;1.58;1.48;;;;;;;;;;5056652;28;20288;-81
2022/08/22 08:38:16;;;;;;;1.30;1.30;;;;;;;;;;5056400;28;20240;-81
2022/08/22 08:41:22;;;;;;;1.42;1.23;;;;;;;;;;5055979;28;20717;-81
2022/08/22 08:43:55;;;;;;;1.52;1.42;;;;;;;;;;5055743;28;20201;-80
2022/08/22 08:47:05;;;;;;;2.50;1.33;;;;;;;;;;5055634;28;20674;-81
2022/08/22 08:50:14;;;;;;;1.92;1.73;;;;;;;;;;5055856;28;20288;-81
2022/08/22 08:53:14;;;;;;;1.17;1.08;;;;;;;;;;5056615;28;20293;-81
2022/08/22 08:55:50;;;;;;;1.27;1.17;;;;;;;;;;5042484;28;20284;-81
2022/08/22 08:58:37;;;;;;;2.78;1.50;;;;;;;;;;5057052;28;20203;-81
2022/08/22 09:01:19;;;;;;;1.75;1.52;;;;;;;;;;5055533;28;20329;-81
2022/08/22 09:04:14;;;;;;;1.88;1.20;;;;;;;;;;5055958;28;20636;-81
2022/08/22 09:07:08;;;;;;;2.83;1.52;;;;;;;;;;5055594;28;20681;-81
2022/08/22 09:09:58;;;;;;;1.70;1.60;;;;;;;;;;5057353;28;20236;-80
2022/08/22 09:12:40;;;;;;;2.05;1.85;;;;;;;;;;5056618;28;20215;-81
2022/08/22 09:15:21;;;;;;;1.63;1.52;;;;;;;;;;5056245;28;20212;-82
2022/08/22 09:18:42;;;;;;;2.05;1.60;;;;;;;;;;5056640;28;20241;-82
2022/08/22 09:22:10;;;;;;;1.55;1.45;;;;;;;;;;5043595;28;20260;-82
2022/08/22 09:25:24;;;;;;;1.75;1.65;;;;;;;;;;5036447;28;20291;-81
2022/08/22 09:28:00;;;;;;;2.30;2.10;;;;;;;;;;5050285;28;20221;-81
2022/08/22 09:30:51;;;;;;;2.33;1.73;;;;;;;;;;5055905;28;20249;-82
2022/08/22 09:33:21;;;;;;;2.65;1.60;;;;;;;;;;5056511;28;20219;-82
2022/08/22 09:35:56;;;;;;;2.60;2.15;;;;;;;;;;5055213;28;20677;-82
2022/08/22 09:38:38;;;;;;;2.63;1.70;;;;;;;;;;5056731;28;20240;-82
2022/08/22 09:41:23;;;;;;;2.50;1.65;;;;;;;;;;5055682;28;20328;-82
2022/08/22 09:44:06;;;;;;;1.85;1.70;;;;;;;;;;5057073;28;20216;-82
2022/08/22 09:46:54;;;;;;;2.22;1.63;;;;;;;;;;5055818;28;20297;-81
2022/08/22 09:49:33;;;;;;;1.73;1.63;;;;;;;;;;5056174;28;20248;-82
2022/08/22 09:52:09;;;;;;;4.00;1.85;;;;;;;;;;5056300;28;20692;-83
2022/08/22 09:54:41;;;;;;;2.45;2.00;;;;;;;;;;5055561;28;20259;-82
2022/08/22 09:57:25;;;;;;;2.47;1.75;;;;;;;;;;5056045;28;20681;-82
2022/08/22 10:00:16;;;;;;;2.35;1.85;;;;;;;;;;5055881;28;20213;-82
2022/08/22 10:02:52;;;;;;;2.60;1.70;;;;;;;;;;5055845;28;20229;-82
2022/08/22 10:05:26;;;;;;;1.23;1.23;;;;;;;;;;5055300;28;20244;-81
2022/08/22 10:08:37;;;;;;;1.30;1.20;;;;;;;;;;5054977;28;20221;-83
2022/08/22 10:11:25;;;;;;;1.27;1.17;;;;;;;;;;5055456;28;20304;-82
2022/08/22 10:13:59;;;;;;;2.00;1.50;;;;;;;;;;5055180;28;20267;-81
2022/08/22 10:16:53;;;;;;;2.65;1.55;;;;;;;;;;5055250;28;20713;-83
2022/08/22 10:19:28;;;;;;;1.80;1.70;;;;;;;;;;5055404;28;20229;-81
2022/08/22 10:22:33;;;;;;;2.45;1.70;;;;;;;;;;5054258;28;20311;-82
2022/08/22 10:25:23;;;;;;;1.30;1.20;;;;;;;;;;5045984;28;20232;-83
2022/08/22 10:28:09;;;;;;;1.38;1.33;;;;;;;;;;5053925;28;20221;-80
2022/08/22 10:30:49;;;;;;;1.73;1.35;;;;;;;;;;5054656;28;20626;-82
2022/08/22 10:33:24;;;;;;;1.27;1.15;;;;;;;;;;5054713;28;20201;-82
2022/08/22 10:36:02;;;;;;;2.00;1.83;;;;;;;;;;5053971;28;20342;-82
2022/08/22 10:38:35;;;;;;;2.15;1.58;;;;;;;;;;5054091;28;20193;-83
2022/08/22 10:41:08;;;;;;;1.92;1.75;;;;;;;;;;5054545;28;20249;-82
2022/08/22 10:43:43;;;;;;;2.60;1.65;;;;;;;;;;5054532;28;20208;-81
2022/08/22 10:46:16;;;;;;;1.60;1.50;;;;;;;;;;5055007;28;20272;-83
2022/08/22 10:48:49;;;;;;;1.38;1.27;;;;;;;;;;5053116;28;20252;-81
2022/08/22 10:51:30;;;;;;;1.50;1.40;;;;;;;;;;5054816;28;20248;-81
2022/08/22 10:54:15;;;;;;;1.83;1.40;;;;;;;;;;5053591;28;20208;-82
2022/08/22 10:56:51;;;;;;;1.67;1.33;;;;;;;;;;5054171;28;20271;-82
2022/08/22 10:59:35;;;;;;;1.63;1.40;;;;;;;;;;5054355;28;20229;-81
2022/08/22 11:02:22;;;;;;;1.38;1.35;;;;;;;;;;5053726;28;20321;-82
2022/08/22 11:05:31;;;;;;;1.45;1.30;;;;;;;;;;5054084;28;20244;-82
2022/08/22 11:08:11;;;;;;;1.30;1.30;;;;;;;;;;5053470;28;20312;-82
2022/08/22 11:11:00;;;;;;;1.00;1.00;;;;;;;;;;5053305;28;20662;-82
2022/08/22 11:13:35;;;;;;;1.52;1.17;;;;;;;;;;5052911;28;20207;-82
2022/08/22 11:16:19;;;;;;;1.40;1.30;;;;;;;;;;5052899;28;20201;-82
2022/08/22 11:19:14;;;;;;;1.00;1.00;;;;;;;;;;5053208;28;20259;-83
2022/08/22 11:21:50;;;;;;;1.30;1.20;;;;;;;;;;5053587;28;20258;-83
2022/08/22 11:25:11;;;;;;;1.48;1.38;;;;;;;;;;5052530;28;20229;-82
2022/08/22 11:27:54;;;;;;;1.48;1.27;;;;;;;;;;5009359;28;20577;-82
2022/08/22 11:30:29;;;;;;;1.40;1.33;;;;;;;;;;5053037;28;20271;-82
2022/08/22 11:33:26;;;;;;;1.42;1.30;;;;;;;;;;5053400;28;20629;-81
2022/08/22 11:36:16;;;;;;;1.95;1.20;;;;;;;;;;5053724;28;20225;-82
2022/08/22 11:38:53;;;;;;;1.50;1.40;;;;;;;;;;5053278;28;20671;-81
2022/08/22 11:41:25;;;;;;;1.73;1.50;;;;;;;;;;5053103;28;20572;-82
2022/08/22 11:44:00;;;;;;;1.48;1.38;;;;;;;;;;5053542;28;20209;-82
2022/08/22 11:46:31;;;;;;;1.50;1.40;;;;;;;;;;5053668;28;20197;-82
2022/08/22 11:49:23;;;;;;;1.30;1.20;;;;;;;;;;5052233;28;20252;-83
2022/08/22 11:52:06;;;;;;;1.52;1.30;;;;;;;;;;5052383;28;20308;-82
2022/08/22 11:55:11;;;;;;;1.05;1.05;;;;;;;;;;5052437;28;20201;-83
2022/08/22 11:57:41;;;;;;;1.48;1.38;;;;;;;;;;5045834;28;20224;-82
2022/08/22 12:00:26;;;;;;;1.35;1.25;;;;;;;;;;5052182;28;20244;-83
2022/08/22 12:03:46;;;;;;;1.40;1.30;;;;;;;;;;5052349;28;20206;-82
2022/08/22 12:06:38;;;;;;;1.60;1.50;;;;;;;;;;5052578;28;20231;-82
2022/08/22 12:09:19;;;;;;;1.60;1.50;;;;;;;;;;5052521;28;20224;-82
2022/08/22 12:12:15;;;;;;;1.30;1.13;;;;;;;;;;5052236;28;20260;-82
2022/08/22 12:14:49;;;;;;;1.20;1.10;;;;;;;;;;5042577;28;20264;-82
2022/08/22 12:17:45;;;;;;;1.50;1.40;;;;;;;;;;5052374;28;20288;-82
2022/08/22 12:20:31;;;;;;;1.77;1.67;;;;;;;;;;5031851;28;20225;-81
2022/08/22 12:23:26;;;;;;;1.52;1.42;;;;;;;;;;5052732;28;20201;-81
2022/08/22 12:26:09;;;;;;;1.77;1.48;;;;;;;;;;5049766;28;20233;-83
2022/08/22 12:28:43;;;;;;;1.50;1.40;;;;;;;;;;5051981;28;20288;-83
2022/08/22 12:31:18;;;;;;;4.43;1.88;;;;;;;;;;5052000;28;20249;-82
2022/08/22 12:34:03;;;;;;;1.45;1.35;;;;;;;;;;5051825;28;20629;-82
2022/08/22 12:37:12;;;;;;;2.33;1.67;;;;;;;;;;5052156;28;20189;-81
2022/08/22 12:40:07;;;;;;;2.45;1.83;;;;;;;;;;5048215;28;20204;-82
2022/08/22 12:43:08;;;;;;;1.70;1.60;;;;;;;;;;5052062;28;20293;-80
2022/08/22 12:46:03;;;;;;;1.70;1.60;;;;;;;;;;5052243;28;20196;-80
2022/08/22 12:49:10;;;;;;;1.65;1.55;;;;;;;;;;5051664;28;20237;-81
2022/08/22 12:52:00;;;;;;;1.35;1.27;;;;;;;;;;5051742;28;20565;-81
2022/08/22 12:54:56;;;;;;;1.48;1.38;;;;;;;;;;5052079;28;20624;-81
2022/08/22 12:57:36;;;;;;;1.25;1.23;;;;;;;;;;5051584;28;20288;-82
2022/08/22 13:00:18;;;;;;;1.20;1.10;;;;;;;;;;5051757;28;20280;-81
2022/08/22 13:02:46;;;;;;;2.30;1.35;;;;;;;;;;5052200;28;20211;-82
2022/08/22 13:05:19;;;;;;;2.00;1.70;;;;;;;;;;5051182;28;20216;-80
2022/08/22 13:07:53;;;;;;;1.40;1.30;;;;;;;;;;5051293;28;20240;-82
2022/08/22 13:10:42;;;;;;;1.30;1.30;;;;;;;;;;5051165;28;20226;-81
2022/08/22 13:13:13;;;;;;;1.30;1.20;;;;;;;;;;5055228;28;20577;-82
2022/08/22 13:15:47;;;;;;;3.10;1.70;;;;;;;;;;5055577;28;20221;-81
2022/08/22 13:18:20;;;;;;;1.40;1.30;;;;;;;;;;5054928;28;20201;-81
2022/08/22 13:20:51;;;;;;;1.23;1.23;;;;;;;;;;5054997;28;20213;-80
2022/08/22 13:23:24;;;;;;;1.48;1.38;;;;;;;;;;5055306;28;20287;-80
2022/08/22 13:26:12;;;;;;;1.50;1.40;;;;;;;;;;5055034;28;20197;-80
2022/08/22 13:28:48;;;;;;;1.60;1.50;;;;;;;;;;5054951;28;20288;-80
2022/08/22 13:31:26;;;;;;;0.90;0.90;;;;;;;;;;5054913;28;20313;-81
2022/08/22 13:33:59;;;;;;;0.95;0.95;;;;;;;;;;5054763;28;20201;-81
2022/08/22 13:36:29;;;;;;;1.17;1.10;;;;;;;;;;5054879;28;20202;-81
2022/08/22 13:39:03;;;;;;;1.02;1.00;;;;;;;;;;5054748;28;20202;-81
2022/08/22 13:41:34;;;;;;;1.38;1.30;;;;;;;;;;5054954;28;20220;-81
2022/08/22 13:44:19;;;;;;;1.15;1.15;;;;;;;;;;5054707;28;20634;-81
2022/08/22 13:46:49;;;;;;;1.02;1.02;;;;;;;;;;5054672;28;20237;-81
2022/08/22 13:49:30;;;;;;;1.40;1.30;;;;;;;;;;5054443;28;20201;-80
2022/08/22 13:52:08;;;;;;;1.23;1.13;;;;;;;;;;5054979;28;20275;-81
2022/08/22 13:54:52;;;;;;;1.67;1.58;;;;;;;;;;5055478;28;20217;-81
2022/08/22 13:57:26;;;;;;;1.60;1.45;;;;;;;;;;5054502;28;20624;-81
2022/08/22 14:00:05;;;;;;;1.67;1.40;;;;;;;;;;5054051;28;20284;-79
2022/08/22 14:02:47;;;;;;;1.73;1.60;;;;;;;;;;5054548;28;20763;-81
2022/08/22 14:05:24;;;;;;;1.30;1.20;;;;;;;;;;5054174;28;20252;-79
2022/08/22 14:08:04;;;;;;;1.40;1.30;;;;;;;;;;5054384;28;20243;-80
2022/08/22 14:10:37;;;;;;;1.75;1.48;;;;;;;;;;5054238;28;20229;-80
2022/08/22 14:13:42;;;;;;;1.75;1.40;;;;;;;;;;5053915;28;20289;-80
2022/08/22 14:16:20;;;;;;;1.15;1.15;;;;;;;;;;5055036;28;20231;-80
2022/08/22 14:18:53;;;;;;;1.30;1.20;;;;;;;;;;5054243;28;20681;-81
2022/08/22 14:21:35;;;;;;;1.38;1.15;;;;;;;;;;5053843;28;20253;-81
2022/08/22 14:24:09;;;;;;;1.42;1.33;;;;;;;;;;5053938;28;20648;-80
2022/08/22 14:26:39;;;;;;;1.70;1.60;;;;;;;;;;5036652;28;20289;-81
2022/08/22 14:29:12;;;;;;;1.20;1.20;;;;;;;;;;5054164;28;20228;-81
2022/08/22 14:31:40;;;;;;;1.15;1.00;;;;;;;;;;5053296;28;20589;-81
2022/08/22 14:34:13;;;;;;;1.45;1.35;;;;;;;;;;5053712;28;20236;-80
2022/08/22 14:36:53;;;;;;;1.70;1.60;;;;;;;;;;5053404;28;20202;-80
2022/08/22 14:39:26;;;;;;;1.40;1.40;;;;;;;;;;5053561;28;20213;-80
2022/08/22 14:42:01;;;;;;;1.40;1.30;;;;;;;;;;5053216;28;20312;-80
2022/08/22 14:44:33;;;;;;;1.88;1.58;;;;;;;;;;5053185;28;20208;-80
2022/08/22 14:47:04;;;;;;;1.67;1.52;;;;;;;;;;5053433;28;20238;-79
2022/08/22 14:49:47;;;;;;;1.60;1.50;;;;;;;;;;5053312;28;20576;-80
2022/08/22 14:52:32;;;;;;;1.25;1.25;;;;;;;;;;5053054;28;20233;-79
2022/08/22 14:55:13;;;;;;;1.90;1.17;;;;;;;;;;5053059;28;20674;-79
2022/08/22 14:57:48;;;;;;;1.10;1.00;;;;;;;;;;5053057;28;20244;-79
2022/08/22 15:00:27;;;;;;;1.20;1.10;;;;;;;;;;5053009;28;20313;-79
2022/08/22 15:03:05;;;;;;;1.83;1.70;;;;;;;;;;5052917;28;20300;-79
2022/08/22 15:05:43;;;;;;;1.50;1.40;;;;;;;;;;5052893;28;20244;-79
2022/08/22 15:08:11;;;;;;;1.40;1.23;;;;;;;;;;5052641;28;20288;-80
2022/08/22 15:10:39;;;;;;;1.13;1.10;;;;;;;;;;5052656;28;20222;-79
2022/08/22 15:13:09;;;;;;;1.48;1.38;;;;;;;;;;5052608;28;20210;-80
2022/08/22 15:15:39;;;;;;;1.58;1.38;;;;;;;;;;5052644;28;20201;-80
2022/08/22 15:18:19;;;;;;;1.45;1.35;;;;;;;;;;5052371;28;20237;-80
2022/08/22 15:20:48;;;;;;;1.30;1.20;;;;;;;;;;5052464;28;20249;-80
2022/08/22 15:23:21;;;;;;;0.93;0.90;;;;;;;;;;5052556;28;20271;-79
2022/08/22 15:26:00;;;;;;;1.63;1.52;;;;;;;;;;5052545;28;20284;-80
2022/08/22 15:28:28;;;;;;;1.58;1.48;;;;;;;;;;5052378;28;20288;-80
2022/08/22 15:31:03;;;;;;;1.75;1.48;;;;;;;;;;5052288;28;20236;-80
2022/08/22 15:33:34;;;;;;;1.23;1.15;;;;;;;;;;5052191;28;20220;-80
2022/08/22 15:36:15;;;;;;;1.00;1.00;;;;;;;;;;5051996;28;20233;-81
2022/08/22 15:38:45;;;;;;;2.65;1.25;;;;;;;;;;5051996;28;20237;-79
2022/08/22 15:41:39;;;;;;;1.02;0.90;;;;;;;;;;5052096;28;20746;-79
2022/08/22 15:44:13;;;;;;;1.20;1.10;;;;;;;;;;5052225;28;20622;-80
2022/08/22 15:46:44;;;;;;;0.90;0.90;;;;;;;;;;5051836;28;20197;-81
2022/08/22 15:49:26;;;;;;;0.80;0.80;;;;;;;;;;5052230;28;20626;-80
2022/08/22 15:52:13;;;;;;;0.90;0.90;;;;;;;;;;5051775;28;20221;-80
2022/08/22 15:55:23;;;;;;;0.80;0.80;;;;;;;;;;5052178;28;20240;-80
2022/08/22 15:58:08;;;;;;;0.80;0.80;;;;;;;;;;5048530;28;20206;-80
2022/08/22 16:00:42;;;;;;;0.90;0.90;;;;;;;;;;5050723;28;20236;-80
2022/08/22 16:03:13;;;;;;;1.33;0.90;;;;;;;;;;5051676;28;20292;-79
2022/08/22 16:05:48;;;;;;;0.90;0.90;;;;;;;;;;5051601;28;20240;-80
2022/08/22 16:08:22;;;;;;;1.33;1.00;;;;;;;;;;5051534;28;20201;-80
2022/08/22 16:10:54;;;;;;;0.80;0.80;;;;;;;;;;5051714;28;20257;-80